Siglerville, Pennsylvania
Current Conditions -  °F | °C
As of 3:55 AM on Friday 31 Oct 2014 (Local Time) from KUNV Reporting Station
Overcast Overcast  
Wind Chill: 40°   Ceiling: 5000
Heat Index: 40°   Visibility: 10mi
Dew Point: 37°   Wind: 0mph
Humidity: 91%   Direction: NA
Pressure: 30"   Gusts: NA
Location:  40.7567°N, 77.488°W
Report Text: KUNV 310755Z AUTO 00000KT 10SM OVC050 04/03 A3000 RMK AO2 T00420028
Loading
Personal Weather Stations






























Interactive Weather Map
Tropical Storm Tracking
New forecast layout! Learn more

10-Day Weather Forecast

Advertisements
Track Severe Weather on mobile